Elm River, Illinois
Current Conditions -  °F | °C
As of 5:55 PM on Monday 20 Oct 2014 (Local Time) from KFWC Reporting Station
Clear Clear  
Wind Chill: 69°   Ceiling: Unl
Heat Index: 69°   Visibility: 10mi
Dew Point: 43°   Wind: 5mph
Humidity: 39%   Direction: 280°W
Pressure: 29.92"   Gusts: NA
Location:  38.4399°N, 88.4246°W
Report Text: KFWC 202255Z AUTO 28004KT 10SM CLR 21/06 A2992 RMK AO1 T02050061
Loading
Personal Weather Stations






























Interactive Weather Map
Tropical Storm Tracking
New forecast layout! Learn more

10-Day Weather Forecast

Advertisements
Track Severe Weather on mobile